createdAt,value
2023-02-23T00:01:55.926Z,27.43
2023-02-23T00:04:23.758Z,28.63
2023-02-23T00:06:54.450Z,27.33
2023-02-23T00:09:25.059Z,28.37
2023-02-23T00:11:56.720Z,27.57
2023-02-23T00:14:28.195Z,28.47
2023-02-23T00:16:56.659Z,28.50
2023-02-23T00:19:25.276Z,30.27
2023-02-23T00:21:53.145Z,29.97
2023-02-23T00:24:21.039Z,28.93
2023-02-23T00:26:51.462Z,27.40
2023-02-23T00:29:20.770Z,29.37
2023-02-23T00:31:48.928Z,29.67
2023-02-23T00:34:17.067Z,26.63
2023-02-23T00:36:44.530Z,29.10
2023-02-23T00:39:26.903Z,30.20
2023-02-23T00:41:55.562Z,30.80
2023-02-23T00:44:23.670Z,30.43
2023-02-23T00:46:52.148Z,27.83
2023-02-23T00:49:20.712Z,29.00
2023-02-23T00:51:48.244Z,30.03
2023-02-23T00:54:16.322Z,27.87
2023-02-23T00:56:45.576Z,27.43
2023-02-23T00:59:13.415Z,30.73
2023-02-23T01:01:45.153Z,32.30
2023-02-23T01:04:13.194Z,30.30
2023-02-23T01:06:41.667Z,30.60
2023-02-23T01:09:14.619Z,29.37
2023-02-23T01:11:42.424Z,29.67
2023-02-23T01:14:11.169Z,31.60
2023-02-23T01:16:39.200Z,31.20
2023-02-23T01:19:07.181Z,32.03
2023-02-23T01:21:36.193Z,32.13
2023-02-23T01:24:04.982Z,31.73
2023-02-23T01:26:37.084Z,32.13
2023-02-23T01:29:08.861Z,31.43
2023-02-23T01:31:37.487Z,31.43
2023-02-23T01:34:06.159Z,31.37
2023-02-23T01:36:34.819Z,33.47
2023-02-23T01:39:05.989Z,31.30
2023-02-23T01:41:33.978Z,30.70
2023-02-23T01:44:21.728Z,32.23
2023-02-23T01:46:50.285Z,31.87
2023-02-23T01:49:20.799Z,30.73
2023-02-23T01:51:53.559Z,31.40
2023-02-23T01:54:22.892Z,30.70
2023-02-23T01:56:58.719Z,29.30
2023-02-23T01:59:34.220Z,31.10
2023-02-23T02:02:05.231Z,31.07
2023-02-23T02:04:43.639Z,30.33
2023-02-23T02:07:15.072Z,31.80
2023-02-23T02:10:03.257Z,31.43
2023-02-23T02:12:30.792Z,30.90
2023-02-23T02:14:59.687Z,31.47
2023-02-23T02:17:41.933Z,29.87
2023-02-23T02:20:33.625Z,30.47
2023-02-23T02:23:19.992Z,30.30
2023-02-23T02:26:09.918Z,30.53
2023-02-23T02:28:52.323Z,29.37
2023-02-23T02:31:38.534Z,31.40
2023-02-23T02:34:26.508Z,33.73
2023-02-23T02:37:24.950Z,31.87
2023-02-23T02:40:17.701Z,30.40
2023-02-23T02:43:01.491Z,29.33
2023-02-23T02:45:39.652Z,34.43
2023-02-23T02:48:31.555Z,29.77
2023-02-23T02:51:25.200Z,28.73
2023-02-23T02:54:12.877Z,26.97
2023-02-23T02:56:41.975Z,30.17
2023-02-23T02:59:35.745Z,28.37
2023-02-23T03:02:22.612Z,28.00
2023-02-23T03:05:08.696Z,27.73
2023-02-23T03:07:59.597Z,32.13
2023-02-23T03:11:12.518Z,32.60
2023-02-23T03:14:36.085Z,27.70
2023-02-23T03:17:30.709Z,24.87
2023-02-23T03:20:18.397Z,22.13
2023-02-23T03:23:12.804Z,27.97
2023-02-23T03:26:18.440Z,29.93
2023-02-23T03:29:18.368Z,28.70
2023-02-23T03:32:10.191Z,27.53
2023-02-23T03:35:02.646Z,25.53
2023-02-23T03:38:00.879Z,26.03
2023-02-23T03:40:48.744Z,25.90
2023-02-23T03:43:37.119Z,25.47
2023-02-23T03:46:25.539Z,26.10
2023-02-23T03:49:13.110Z,23.00
2023-02-23T03:52:01.713Z,23.00
2023-02-23T03:54:52.891Z,26.73
2023-02-23T03:57:40.042Z,25.40
2023-02-23T04:00:28.594Z,23.87
2023-02-23T04:03:16.614Z,23.53
2023-02-23T04:06:03.720Z,21.20
2023-02-23T04:08:53.678Z,24.00
2023-02-23T04:11:47.335Z,23.27
2023-02-23T04:14:17.788Z,22.47
2023-02-23T04:16:45.863Z,24.23
2023-02-23T04:19:13.351Z,26.40
2023-02-23T04:21:40.838Z,26.17
2023-02-23T04:24:08.318Z,29.27
2023-02-23T04:26:35.776Z,25.53
2023-02-23T04:29:03.206Z,25.23
2023-02-23T04:31:30.752Z,26.37
2023-02-23T04:33:58.209Z,28.57
2023-02-23T04:36:26.941Z,27.03
2023-02-23T04:38:54.371Z,26.60
2023-02-23T04:41:21.828Z,27.00
2023-02-23T04:43:49.320Z,25.17
2023-02-23T04:46:16.848Z,25.80
2023-02-23T04:48:44.362Z,25.90
2023-02-23T04:51:11.994Z,23.93
2023-02-23T04:53:39.692Z,24.13
2023-02-23T04:56:07.745Z,24.53
2023-02-23T04:58:35.153Z,25.87
2023-02-23T05:01:06.739Z,28.10
2023-02-23T05:03:34.584Z,27.20
2023-02-23T05:06:02.101Z,26.47
2023-02-23T05:08:29.537Z,27.57
2023-02-23T05:10:57.013Z,28.60
2023-02-23T05:13:24.558Z,29.23
2023-02-23T05:15:52.107Z,31.73
2023-02-23T05:18:19.569Z,33.17
2023-02-23T05:20:47.734Z,31.60
2023-02-23T05:23:15.200Z,30.13
2023-02-23T05:25:42.639Z,27.50
2023-02-23T05:28:10.710Z,28.43
2023-02-23T05:30:38.259Z,26.73
2023-02-23T05:33:05.799Z,24.00
2023-02-23T05:35:33.198Z,26.37
2023-02-23T05:38:00.648Z,24.37
2023-02-23T05:40:28.098Z,26.60
2023-02-23T05:42:59.528Z,27.27
2023-02-23T05:45:27.280Z,26.07
2023-02-23T05:47:54.740Z,27.10
2023-02-23T05:50:22.221Z,28.63
2023-02-23T05:52:50.573Z,27.77
2023-02-23T05:55:18.113Z,26.60
2023-02-23T05:57:45.694Z,32.13
2023-02-23T06:00:16.230Z,30.30
2023-02-23T06:02:43.699Z,31.50
2023-02-23T06:05:11.983Z,32.10
2023-02-23T06:07:39.524Z,27.60
2023-02-23T06:10:07.511Z,27.63
2023-02-23T06:12:35.037Z,26.13
2023-02-23T06:15:02.442Z,30.00
2023-02-23T06:17:30.924Z,28.00
2023-02-23T06:19:59.817Z,28.73
2023-02-23T06:22:27.260Z,28.97
2023-02-23T06:24:54.760Z,29.10
2023-02-23T06:27:22.220Z,30.97
2023-02-23T06:29:49.677Z,28.33
2023-02-23T06:32:17.261Z,30.47
2023-02-23T06:34:48.771Z,30.17
2023-02-23T06:37:17.682Z,29.20
2023-02-23T06:39:45.095Z,26.57
2023-02-23T06:42:12.581Z,34.23
2023-02-23T06:44:40.214Z,29.03
2023-02-23T06:47:07.683Z,30.33
2023-02-23T06:49:35.282Z,30.80
2023-02-23T06:52:02.724Z,30.83
2023-02-23T06:54:30.450Z,26.77
2023-02-23T06:56:57.931Z,31.33
2023-02-23T06:59:25.363Z,29.23
2023-02-23T07:01:52.938Z,33.77
2023-02-23T07:04:20.398Z,29.17
2023-02-23T07:06:48.476Z,34.87
2023-02-23T07:09:15.932Z,35.77
2023-02-23T07:11:45.230Z,32.13
2023-02-23T07:14:15.348Z,29.60
2023-02-23T07:16:49.544Z,30.67
2023-02-23T07:19:17.012Z,26.63
2023-02-23T07:21:44.936Z,29.13
2023-02-23T07:24:12.447Z,29.50
2023-02-23T07:26:43.701Z,26.37
2023-02-23T07:29:12.754Z,39.27
2023-02-23T07:31:40.725Z,32.17
2023-02-23T07:34:08.597Z,29.00
2023-02-23T07:36:36.374Z,28.73
2023-02-23T07:39:05.181Z,31.60
2023-02-23T07:41:33.043Z,31.30
2023-02-23T07:44:01.350Z,30.80
2023-02-23T07:46:28.785Z,32.83
2023-02-23T07:48:56.349Z,29.27
2023-02-23T07:51:23.787Z,29.20
2023-02-23T07:53:51.320Z,24.30
2023-02-23T07:56:18.757Z,24.20
2023-02-23T07:58:46.267Z,29.33
2023-02-23T08:01:13.980Z,32.20
2023-02-23T08:03:41.600Z,28.33
2023-02-23T08:06:09.093Z,34.57
2023-02-23T08:08:36.970Z,27.47
2023-02-23T08:11:05.238Z,27.60
2023-02-23T08:13:34.140Z,29.67
2023-02-23T08:16:01.724Z,26.97
2023-02-23T08:18:29.291Z,27.50
2023-02-23T08:21:00.595Z,30.20
2023-02-23T08:23:30.345Z,23.47
2023-02-23T08:25:59.706Z,24.33
2023-02-23T08:28:27.749Z,26.23
2023-02-23T08:30:55.791Z,26.60
2023-02-23T08:33:23.664Z,29.93
2023-02-23T08:35:53.692Z,25.83
2023-02-23T08:38:21.406Z,30.90
2023-02-23T08:40:48.816Z,31.13
2023-02-23T08:43:16.398Z,27.37
2023-02-23T08:45:43.833Z,33.83
2023-02-23T08:48:11.295Z,32.03
2023-02-23T08:50:38.750Z,33.87
2023-02-23T08:53:07.244Z,29.97
2023-02-23T08:55:35.637Z,32.33
2023-02-23T08:58:03.190Z,29.23
2023-02-23T09:00:31.544Z,26.37
2023-02-23T09:02:59.669Z,24.90
2023-02-23T09:05:27.234Z,24.33
2023-02-23T09:07:54.725Z,21.73
2023-02-23T09:10:27.871Z,23.87
2023-02-23T09:12:55.904Z,23.20
2023-02-23T09:15:23.365Z,23.30
2023-02-23T09:17:50.833Z,21.60
2023-02-23T09:20:18.799Z,26.70
2023-02-23T09:22:49.315Z,22.50
2023-02-23T09:25:22.727Z,22.70
2023-02-23T09:27:51.282Z,24.07
2023-02-23T09:30:20.731Z,21.27
2023-02-23T09:32:50.811Z,20.37
2023-02-23T09:35:18.874Z,19.33
2023-02-23T09:37:48.375Z,20.73
2023-02-23T09:40:20.077Z,20.63
2023-02-23T09:43:05.556Z,19.30
2023-02-23T09:45:48.814Z,20.23
2023-02-23T09:48:20.945Z,18.53
2023-02-23T09:50:52.167Z,20.63
2023-02-23T09:53:25.524Z,18.20
2023-02-23T09:55:54.392Z,19.20
2023-02-23T09:58:26.215Z,20.37
2023-02-23T10:01:22.318Z,22.30
2023-02-23T10:03:57.958Z,19.77
2023-02-23T10:06:25.814Z,20.43
2023-02-23T10:08:58.728Z,18.93
2023-02-23T10:11:46.479Z,19.80
2023-02-23T10:14:35.048Z,21.63
2023-02-23T10:17:10.844Z,21.97
2023-02-23T10:19:57.470Z,20.03
2023-02-23T10:22:25.517Z,18.23
2023-02-23T10:25:01.454Z,19.20
2023-02-23T10:27:38.996Z,20.37
2023-02-23T10:30:17.157Z,18.93
2023-02-23T10:32:50.198Z,22.43
2023-02-23T10:35:20.565Z,24.67
2023-02-23T10:37:48.528Z,21.80
2023-02-23T10:40:35.805Z,22.03
2023-02-23T10:43:03.623Z,25.00
2023-02-23T10:45:35.191Z,24.60
2023-02-23T10:48:05.234Z,24.90
2023-02-23T10:50:33.339Z,21.23
2023-02-23T10:53:40.199Z,20.53
2023-02-23T10:56:15.636Z,22.20
2023-02-23T10:58:53.552Z,21.97
2023-02-23T11:01:41.921Z,25.03
2023-02-23T11:04:35.137Z,22.00
2023-02-23T11:07:29.714Z,20.40
2023-02-23T11:09:57.944Z,21.73
2023-02-23T11:12:28.575Z,22.20
2023-02-23T11:14:57.435Z,22.27
2023-02-23T11:17:33.197Z,22.03
2023-02-23T11:20:02.749Z,21.67
2023-02-23T11:22:35.484Z,22.07
2023-02-23T11:25:12.775Z,24.93
2023-02-23T11:27:40.248Z,24.73
2023-02-23T11:30:08.249Z,27.03
2023-02-23T11:32:43.354Z,23.97
2023-02-23T11:35:22.673Z,24.40
2023-02-23T11:37:50.684Z,24.63
2023-02-23T11:40:22.692Z,22.57
2023-02-23T11:43:09.960Z,24.67
2023-02-23T11:45:46.186Z,23.23
2023-02-23T11:48:46.846Z,20.40
2023-02-23T11:51:23.252Z,18.97
2023-02-23T11:53:50.803Z,18.43
2023-02-23T11:56:24.012Z,21.10
2023-02-23T11:58:53.955Z,16.97
2023-02-23T12:01:36.052Z,15.37
2023-02-23T12:04:03.948Z,16.40
2023-02-23T12:06:39.111Z,13.77
2023-02-23T12:09:37.031Z,13.53
2023-02-23T12:12:07.254Z,11.50
2023-02-23T12:14:40.013Z,14.17
2023-02-23T12:17:19.379Z,14.90
2023-02-23T12:20:15.607Z,13.43
2023-02-23T12:22:45.858Z,11.43
2023-02-23T12:25:45.542Z,12.97
2023-02-23T12:28:19.250Z,12.33
2023-02-23T12:30:57.759Z,12.67
2023-02-23T12:33:34.036Z,11.37
2023-02-23T12:36:05.072Z,13.03
2023-02-23T12:38:48.965Z,13.00
2023-02-23T12:41:40.609Z,15.13
2023-02-23T12:44:26.776Z,15.10
2023-02-23T12:46:55.803Z,14.10
2023-02-23T12:49:30.968Z,12.77
2023-02-23T12:52:08.636Z,12.63
2023-02-23T12:54:37.249Z,11.30
2023-02-23T12:57:13.792Z,9.13
2023-02-23T12:59:49.960Z,9.43
2023-02-23T13:02:40.379Z,12.30
2023-02-23T13:05:17.256Z,12.00
2023-02-23T13:07:53.953Z,10.40
2023-02-23T13:10:43.692Z,12.00
2023-02-23T13:13:34.441Z,11.57
2023-02-23T13:16:10.414Z,12.40
2023-02-23T13:19:07.277Z,13.60
2023-02-23T13:21:40.837Z,12.70
2023-02-23T13:24:13.128Z,12.70
2023-02-23T13:26:56.691Z,12.60
2023-02-23T13:29:45.953Z,13.40
2023-02-23T13:32:21.369Z,15.53
2023-02-23T13:35:00.697Z,14.87
2023-02-23T13:37:35.115Z,14.53
2023-02-23T13:40:08.622Z,14.77
2023-02-23T13:42:58.760Z,15.40
2023-02-23T13:46:01.981Z,13.83
2023-02-23T13:48:58.379Z,14.67
2023-02-23T13:51:44.656Z,13.77
2023-02-23T13:54:30.197Z,14.00
2023-02-23T13:56:59.360Z,14.63
2023-02-23T13:59:29.703Z,12.93
2023-02-23T14:01:57.926Z,13.13
2023-02-23T14:04:29.383Z,13.30
2023-02-23T14:07:16.826Z,12.40
2023-02-23T14:10:06.583Z,10.77
2023-02-23T14:12:39.950Z,9.37
2023-02-23T14:15:30.572Z,9.50
2023-02-23T14:17:59.356Z,9.27
2023-02-23T14:20:45.613Z,9.07
2023-02-23T14:23:42.681Z,8.87
2023-02-23T14:26:12.386Z,8.57
2023-02-23T14:28:41.280Z,6.20
2023-02-23T14:31:27.248Z,7.27
2023-02-23T14:33:58.671Z,6.73
2023-02-23T14:36:30.354Z,7.60
2023-02-23T14:39:02.105Z,6.90
2023-02-23T14:42:02.162Z,7.50
2023-02-23T14:44:36.293Z,7.90
2023-02-23T14:47:04.737Z,7.67
2023-02-23T14:49:35.168Z,8.37
2023-02-23T14:52:10.429Z,7.93
2023-02-23T14:54:41.474Z,7.53
2023-02-23T14:57:20.310Z,7.50
2023-02-23T14:59:53.418Z,8.17
2023-02-23T15:02:22.726Z,7.43
2023-02-23T15:04:50.247Z,6.67
2023-02-23T15:07:25.329Z,8.23
2023-02-23T15:09:56.820Z,7.60
2023-02-23T15:12:28.481Z,8.37
2023-02-23T15:15:01.847Z,7.67
2023-02-23T15:17:32.077Z,8.43
2023-02-23T15:20:14.755Z,7.97
2023-02-23T15:22:44.661Z,7.63
2023-02-23T15:25:19.824Z,6.73
2023-02-23T15:27:48.205Z,7.23
2023-02-23T15:30:23.763Z,7.20
2023-02-23T15:33:14.457Z,6.63
2023-02-23T15:35:47.554Z,6.87
2023-02-23T15:38:44.302Z,6.70
2023-02-23T15:41:15.775Z,8.83
2023-02-23T15:43:43.905Z,6.80
2023-02-23T15:46:15.329Z,7.43
2023-02-23T15:48:49.186Z,8.10
2023-02-23T15:51:31.969Z,7.83
2023-02-23T15:54:00.575Z,8.30
2023-02-23T15:56:29.557Z,8.27
2023-02-23T15:58:59.152Z,8.13
2023-02-23T16:01:30.775Z,8.07
2023-02-23T16:04:09.365Z,7.83
2023-02-23T16:06:44.476Z,7.60
2023-02-23T16:09:24.122Z,8.53
2023-02-23T16:11:53.412Z,8.00
2023-02-23T16:14:21.823Z,7.37
2023-02-23T16:17:08.432Z,7.77
2023-02-23T16:19:41.711Z,7.80
2023-02-23T16:22:15.549Z,7.43
2023-02-23T16:24:43.160Z,7.33
2023-02-23T16:27:11.870Z,6.87
2023-02-23T16:29:43.460Z,7.10
2023-02-23T16:32:24.933Z,6.83
2023-02-23T16:35:02.413Z,6.97
2023-02-23T16:37:29.924Z,7.07
2023-02-23T16:39:57.378Z,7.20
2023-02-23T16:42:35.320Z,6.93
2023-02-23T16:45:02.889Z,6.80
2023-02-23T16:47:38.124Z,7.30
2023-02-23T16:50:20.931Z,6.83
2023-02-23T16:52:53.663Z,6.67
2023-02-23T16:55:26.006Z,7.83
2023-02-23T16:57:55.810Z,7.47
2023-02-23T17:00:24.943Z,6.60
2023-02-23T17:02:52.802Z,6.93
2023-02-23T17:05:21.530Z,7.23
2023-02-23T17:07:48.984Z,6.93
2023-02-23T17:10:25.153Z,7.07
2023-02-23T17:12:57.285Z,7.40
2023-02-23T17:15:27.505Z,6.80
2023-02-23T17:17:56.274Z,7.20
2023-02-23T17:20:26.059Z,7.77
2023-02-23T17:22:57.314Z,7.70
2023-02-23T17:25:26.625Z,7.27
2023-02-23T17:27:54.992Z,7.50
2023-02-23T17:30:22.563Z,7.97
2023-02-23T17:32:50.711Z,7.27
2023-02-23T17:35:18.617Z,7.73
2023-02-23T17:37:46.068Z,8.10
2023-02-23T17:40:18.566Z,7.63
2023-02-23T17:42:46.057Z,7.40
2023-02-23T17:45:13.605Z,8.30
2023-02-23T17:47:42.810Z,12.13
2023-02-23T17:50:10.877Z,11.40
2023-02-23T17:52:38.558Z,9.47
2023-02-23T17:55:06.250Z,8.03
2023-02-23T17:57:33.774Z,7.87
2023-02-23T18:00:01.359Z,8.90
2023-02-23T18:02:40.145Z,8.80
2023-02-23T18:05:08.669Z,7.90
2023-02-23T18:07:36.292Z,8.30
2023-02-23T18:10:04.489Z,8.87
2023-02-23T18:12:32.018Z,7.97
2023-02-23T18:15:00.467Z,9.43
2023-02-23T18:17:28.148Z,8.23
2023-02-23T18:19:55.816Z,9.23
2023-02-23T18:22:23.227Z,8.33
2023-02-23T18:24:50.795Z,9.00
2023-02-23T18:27:18.291Z,8.30
2023-02-23T18:29:45.827Z,8.90
2023-02-23T18:32:13.478Z,8.20
2023-02-23T18:34:41.353Z,8.20
2023-02-23T18:37:10.344Z,8.33
2023-02-23T18:39:38.311Z,8.00
2023-02-23T18:42:05.992Z,8.60
2023-02-23T18:44:35.184Z,7.67
2023-02-23T18:47:02.841Z,8.87
2023-02-23T18:49:30.397Z,7.30
2023-02-23T18:51:59.622Z,8.07
2023-02-23T18:54:28.020Z,10.90
2023-02-23T18:56:56.005Z,8.37
2023-02-23T18:59:23.538Z,8.47
2023-02-23T19:01:50.997Z,8.10
2023-02-23T19:04:18.657Z,8.13
2023-02-23T19:06:47.409Z,7.37
2023-02-23T19:09:18.447Z,8.37
2023-02-23T19:11:46.127Z,8.00
2023-02-23T19:14:16.142Z,7.97
2023-02-23T19:16:44.344Z,8.53
2023-02-23T19:19:12.132Z,8.50
2023-02-23T19:21:39.595Z,10.23
2023-02-23T19:24:07.451Z,9.27
2023-02-23T19:26:35.178Z,8.60
2023-02-23T19:29:02.655Z,8.90
2023-02-23T19:31:30.389Z,8.87
2023-02-23T19:33:58.482Z,8.90
2023-02-23T19:36:30.741Z,9.23
2023-02-23T19:39:06.324Z,9.70
2023-02-23T19:41:34.622Z,9.97
2023-02-23T19:44:02.029Z,9.07
2023-02-23T19:46:30.078Z,8.83
2023-02-23T19:48:57.692Z,9.83
2023-02-23T19:51:25.369Z,8.97
2023-02-23T19:53:56.635Z,8.37
2023-02-23T19:56:25.094Z,8.80
2023-02-23T19:58:53.121Z,9.37
2023-02-23T20:01:22.141Z,8.67
2023-02-23T20:04:01.975Z,9.57
2023-02-23T20:06:32.149Z,10.00
2023-02-23T20:09:00.429Z,10.10
2023-02-23T20:11:28.268Z,10.00
2023-02-23T20:13:57.473Z,8.83
2023-02-23T20:16:29.731Z,8.47
2023-02-23T20:18:58.164Z,8.73
2023-02-23T20:21:26.916Z,10.07
2023-02-23T20:23:55.919Z,9.20
2023-02-23T20:26:26.479Z,8.17
2023-02-23T20:28:57.697Z,9.50
2023-02-23T20:31:33.516Z,9.73
2023-02-23T20:34:02.458Z,10.27
2023-02-23T20:36:29.961Z,9.83
2023-02-23T20:38:57.461Z,8.93
2023-02-23T20:41:28.120Z,9.83
2023-02-23T20:43:56.187Z,9.57
2023-02-23T20:46:23.704Z,9.73
2023-02-23T20:48:51.324Z,10.13
2023-02-23T20:51:19.638Z,9.90
2023-02-23T20:53:48.298Z,10.57
2023-02-23T20:56:17.277Z,9.73
2023-02-23T20:58:45.147Z,10.23
2023-02-23T21:01:17.017Z,10.27
2023-02-23T21:03:44.854Z,11.97
2023-02-23T21:06:12.376Z,10.10
2023-02-23T21:08:42.318Z,11.33
2023-02-23T21:11:09.901Z,9.80
2023-02-23T21:13:37.375Z,11.17
2023-02-23T21:16:05.217Z,12.63
2023-02-23T21:18:32.829Z,11.27
2023-02-23T21:21:09.413Z,11.07
2023-02-23T21:23:43.439Z,11.07
2023-02-23T21:26:14.363Z,11.17
2023-02-23T21:28:46.595Z,11.87
2023-02-23T21:31:15.554Z,10.77
2023-02-23T21:33:44.174Z,11.43
2023-02-23T21:36:12.745Z,11.30
2023-02-23T21:38:41.258Z,11.83
2023-02-23T21:41:09.475Z,11.57
2023-02-23T21:43:37.528Z,10.87
2023-02-23T21:46:12.721Z,11.97
2023-02-23T21:48:40.452Z,11.30
2023-02-23T21:51:09.367Z,10.87
2023-02-23T21:53:37.630Z,11.13
2023-02-23T21:56:11.951Z,11.57
2023-02-23T21:58:40.067Z,12.93
2023-02-23T22:01:11.594Z,12.07
2023-02-23T22:03:39.161Z,11.80
2023-02-23T22:06:06.855Z,11.23
2023-02-23T22:08:36.414Z,10.93
2023-02-23T22:11:11.223Z,12.23
2023-02-23T22:13:38.749Z,12.40
2023-02-23T22:16:07.176Z,11.40
2023-02-23T22:18:34.718Z,11.50
2023-02-23T22:21:04.652Z,11.47
2023-02-23T22:23:32.135Z,12.53
2023-02-23T22:26:02.977Z,11.47
2023-02-23T22:28:30.656Z,11.40
2023-02-23T22:30:58.171Z,11.70
2023-02-23T22:33:25.731Z,12.47
2023-02-23T22:35:53.214Z,13.57
2023-02-23T22:38:20.864Z,13.33
2023-02-23T22:40:48.563Z,11.37
2023-02-23T22:43:16.565Z,11.83
2023-02-23T22:45:44.388Z,12.77
2023-02-23T22:48:11.944Z,13.10
2023-02-23T22:50:39.398Z,11.60
2023-02-23T22:53:06.893Z,12.47
2023-02-23T22:55:35.156Z,11.87
2023-02-23T22:58:08.381Z,12.07
2023-02-23T23:00:36.276Z,12.37
2023-02-23T23:03:04.372Z,12.27
2023-02-23T23:05:37.433Z,11.90
2023-02-23T23:08:04.912Z,12.70
2023-02-23T23:10:32.404Z,11.47
2023-02-23T23:12:59.886Z,13.27
2023-02-23T23:15:27.443Z,14.60
2023-02-23T23:17:55.038Z,14.17
2023-02-23T23:20:25.642Z,12.73
2023-02-23T23:22:53.740Z,13.23
2023-02-23T23:25:23.131Z,12.70
2023-02-23T23:27:54.406Z,12.40
2023-02-23T23:30:21.913Z,12.43
2023-02-23T23:32:49.493Z,11.60
2023-02-23T23:35:20.773Z,10.43
2023-02-23T23:37:51.615Z,10.97
2023-02-23T23:40:24.411Z,10.40
2023-02-23T23:42:52.715Z,9.23
2023-02-23T23:45:24.384Z,9.57
2023-02-23T23:47:51.981Z,10.77
2023-02-23T23:50:24.416Z,11.40
2023-02-23T23:52:51.905Z,9.67
2023-02-23T23:55:19.381Z,9.53
2023-02-23T23:57:46.928Z,10.73
